^^
Meteo Knjazevac Station Historical Data
Daily Summary for February 7, 2021 Units:  English    Metric   Both
Daily Weekly Monthly Yearly Custom
  High: Low: Average:
Temperature: 78.6 °F 55.8 °F 67.1 °F
Dew Point: 65.1 °F 53.9 °F 60.3 °F
Humidity: 96% 62% 80%
Wind Speed: 8mph 0mph 1.7mph
Wind Gust: 14mph - -
Wind- - South
Pressure: 30.13 in 30.07 in -
Precipitation: 0.00 in    
Historical Graphs
 
 
Tabular Data for February 7, 2021
Time Temperature Dew Point Pressure Wind Wind Speed Wind Gust Humidity Rainfall Rate (Hourly) solar Conditions
00:00 65.1 °F 59.9 °F 30.12 in SE 2 mph 4 mph 83% 0.00 in 0 W/m2
00:10 64.9 °F 59.7 °F 30.12 in WSW 1 mph 4 mph 83% 0.00 in 0 W/m2
00:20 64.6 °F 59.6 °F 30.12 in WSW 1 mph 4 mph 84% 0.00 in 0 W/m2
00:30 64.4 °F 59.5 °F 30.12 in NNE 1 mph 3 mph 84% 0.00 in 0 W/m2
00:40 64.2 °F 59.3 °F 30.12 in ENE 1 mph 4 mph 84% 0.00 in 0 W/m2
00:50 64.2 °F 59.3 °F 30.12 in Calm   2 mph 84% 0.00 in 0 W/m2
01:00 63.9 °F 59.3 °F 30.11 in NNW 1 mph 2 mph 85% 0.00 in 0 W/m2
01:10 63.5 °F 58.9 °F 30.11 in Calm   2 mph 85% 0.00 in 0 W/m2
01:20 63.1 °F 58.6 °F 30.12 in ESE 2 mph 4 mph 85% 0.00 in 0 W/m2
01:30 62.8 °F 58.5 °F 30.11 in Calm   3 mph 86% 0.00 in 0 W/m2
01:40 62.6 °F 58.4 °F 30.11 in Calm   3 mph 86% 0.00 in 0 W/m2
01:50 62.2 °F 58 °F 30.11 in Calm   2 mph 86% 0.00 in 0 W/m2
02:00 61.9 °F 57.7 °F 30.11 in Calm   2 mph 86% 0.00 in 0 W/m2
02:10 61.5 °F 57.9 °F 30.11 in Calm   1 mph 88% 0.00 in 0 W/m2
02:20 61.2 °F 57.6 °F 30.11 in NNW 1 mph 2 mph 88% 0.00 in 0 W/m2
02:30 61 °F 57.7 °F 30.11 in Calm   3 mph 89% 0.00 in 0 W/m2
02:40 60.6 °F 57.4 °F 30.11 in Calm     89% 0.00 in 0 W/m2
02:50 60.4 °F 57.2 °F 30.11 in Calm   2 mph 89% 0.00 in 0 W/m2
03:00 60.3 °F 57.3 °F 30.11 in Calm   2 mph 90% 0.00 in 0 W/m2
03:10 59.9 °F 57 °F 30.11 in East 1 mph 2 mph 90% 0.00 in 0 W/m2
03:20 59.5 °F 56.6 °F 30.11 in Calm   2 mph 90% 0.00 in 0 W/m2
03:30 59.4 °F 56.4 °F 30.11 in Calm   2 mph 90% 0.00 in 0 W/m2
03:40 58.8 °F 55.9 °F 30.11 in NNW 1 mph 2 mph 90% 0.00 in 0 W/m2
03:50 58.6 °F 56 °F 30.11 in Calm     91% 0.00 in 0 W/m2
04:00 58.3 °F 55.4 °F 30.11 in Calm   2 mph 90% 0.00 in 0 W/m2
04:10 57.9 °F 55.3 °F 30.11 in Calm   2 mph 91% 0.00 in 0 W/m2
04:20 57.6 °F 55 °F 30.11 in North 1 mph 2 mph 91% 0.00 in 0 W/m2
04:30 57 °F 54.4 °F 30.12 in Calm   1 mph 91% 0.00 in 0 W/m2
04:40 56.8 °F 54.2 °F 30.12 in Calm   1 mph 91% 0.00 in 0 W/m2
04:50 56.5 °F 54.5 °F 30.12 in Calm   2 mph 93% 0.00 in 3 W/m2
05:00 56.5 °F 54.5 °F 30.12 in Calm     93% 0.00 in 8 W/m2
05:10 56.3 °F 54.3 °F 30.12 in Calm   2 mph 93% 0.00 in 17 W/m2
05:20 55.9 °F 53.9 °F 30.12 in Calm   2 mph 93% 0.00 in 28 W/m2
05:30 55.9 °F 54.2 °F 30.12 in Calm   2 mph 94% 0.00 in 37 W/m2
05:40 55.8 °F 54.1 °F 30.13 in NW 1 mph 2 mph 94% 0.00 in 43 W/m2
05:50 55.9 °F 54.2 °F 30.12 in Calm   3 mph 94% 0.00 in 61 W/m2
06:00 55.8 °F 54.1 °F 30.13 in Calm   1 mph 94% 0.00 in 101 W/m2
06:10 55.9 °F 54.5 °F 30.13 in Calm   2 mph 95% 0.00 in 114 W/m2
06:20 56.3 °F 54.9 °F 30.13 in Calm   1 mph 95% 0.00 in 148 W/m2
06:30 56.7 °F 55.2 °F 30.13 in Calm   1 mph 95% 0.00 in 116 W/m2
06:40 57 °F 55.6 °F 30.13 in Calm   1 mph 95% 0.00 in 108 W/m2
06:50 57.4 °F 56.2 °F 30.13 in NW 1 mph 2 mph 96% 0.00 in 121 W/m2
07:00 57.7 °F 56.6 °F 30.13 in SW 1 mph 2 mph 96% 0.00 in 322 W/m2
07:10 58.5 °F 57.3 °F 30.13 in Calm   2 mph 96% 0.00 in 337 W/m2
07:20 59.4 °F 57.9 °F 30.13 in Calm   2 mph 95% 0.00 in 218 W/m2
07:30 60.3 °F 58.8 °F 30.13 in Calm   2 mph 95% 0.00 in 248 W/m2
07:40 61.3 °F 59.6 °F 30.13 in Calm   3 mph 94% 0.00 in 278 W/m2
07:50 62.4 °F 59.8 °F 30.13 in SE 2 mph 4 mph 91% 0.00 in 354 W/m2
08:00 63.3 °F 60.3 °F 30.13 in South 2 mph 5 mph 90% 0.00 in 468 W/m2
08:10 64.2 °F 61.2 °F 30.13 in SSE 2 mph 4 mph 90% 0.00 in 328 W/m2
08:20 65.1 °F 61.8 °F 30.13 in South 1 mph 4 mph 89% 0.00 in 504 W/m2
08:30 65.7 °F 62 °F 30.13 in South 1 mph 6 mph 88% 0.00 in 274 W/m2
08:40 66 °F 61.4 °F 30.13 in SW 1 mph 3 mph 85% 0.00 in 621 W/m2
08:50 66.7 °F 62.1 °F 30.13 in NW 2 mph 5 mph 85% 0.00 in 571 W/m2
09:00 68.2 °F 62.8 °F 30.13 in Calm   4 mph 83% 0.00 in 676 W/m2
09:10 69.8 °F 62.6 °F 30.13 in Calm   5 mph 78% 0.00 in 666 W/m2
09:20 70.5 °F 62.2 °F 30.13 in Calm   4 mph 75% 0.00 in 629 W/m2
09:30 71.3 °F 62.2 °F 30.13 in East 2 mph 4 mph 73% 0.00 in 751 W/m2
09:40 72 °F 62.4 °F 30.13 in West 2 mph 5 mph 72% 0.00 in 774 W/m2
09:50 72.9 °F 62.5 °F 30.13 in West 2 mph 5 mph 70% 0.00 in 797 W/m2
10:00 74.1 °F 63.3 °F 30.12 in SSW 1 mph 5 mph 69% 0.00 in 818 W/m2
10:10 75 °F 63.3 °F 30.13 in SSW 2 mph 5 mph 67% 0.00 in 838 W/m2
10:20 75.6 °F 63.8 °F 30.12 in WSW 2 mph 6 mph 67% 0.00 in 856 W/m2
10:30 76.3 °F 63.2 °F 30.12 in South 3 mph 7 mph 64% 0.00 in 874 W/m2
10:40 77 °F 63.9 °F 30.12 in NE 2 mph 7 mph 64% 0.00 in 354 W/m2
10:50 77.4 °F 63.8 °F 30.12 in NNE 3 mph 7 mph 63% 0.00 in 905 W/m2
11:00 77.5 °F 63.5 °F 30.12 in Calm   6 mph 62% 0.00 in 666 W/m2
11:10 77.2 °F 63.6 °F 30.11 in NNE 2 mph 7 mph 63% 0.00 in 716 W/m2
11:20 76.8 °F 62.8 °F 30.11 in NNE 2 mph 5 mph 62% 0.00 in 462 W/m2
11:30 76.5 °F 63.8 °F 30.11 in Calm   5 mph 65% 0.00 in 445 W/m2
11:40 76.5 °F 63.8 °F 30.11 in North 1 mph 5 mph 65% 0.00 in 423 W/m2
11:50 76.4 °F 62.9 °F 30.11 in NW 1 mph 5 mph 63% 0.00 in 539 W/m2
12:00 76.6 °F 63.1 °F 30.10 in Calm   4 mph 63% 0.00 in 671 W/m2
12:10 76.6 °F 63.1 °F 30.10 in West 2 mph 6 mph 63% 0.00 in 556 W/m2
12:20 76.8 °F 64.2 °F 30.10 in West 1 mph 5 mph 65% 0.00 in 800 W/m2
12:30 77.7 °F 64.1 °F 30.09 in WNW 2 mph 5 mph 63% 0.00 in 683 W/m2
12:40 77.9 °F 64.3 °F 30.09 in WSW 2 mph 7 mph 63% 0.00 in 549 W/m2
12:50 77.9 °F 64.7 °F 30.09 in NNW 1 mph 5 mph 64% 0.00 in 456 W/m2
13:00 77.9 °F 64.7 °F 30.09 in WSW 3 mph 8 mph 64% 0.00 in 611 W/m2
13:10 77.9 °F 64.7 °F 30.08 in WSW 3 mph 10 mph 64% 0.00 in 650 W/m2
13:20 77.8 °F 64.1 °F 30.08 in West 1 mph 7 mph 63% 0.00 in 689 W/m2
13:30 78.1 °F 64.5 °F 30.08 in West 3 mph 8 mph 63% 0.00 in 625 W/m2
13:40 78.3 °F 64.2 °F 30.08 in SW 3 mph 7 mph 62% 0.00 in 935 W/m2
13:50 78.6 °F 64.5 °F 30.08 in SW 5 mph 8 mph 62% 0.00 in 323 W/m2
14:00 78.1 °F 64.5 °F 30.08 in WSW 2 mph 7 mph 63% 0.00 in 257 W/m2
14:10 77.7 °F 64.1 °F 30.08 in WSW 5 mph 7 mph 63% 0.00 in 181 W/m2
14:20 76.4 °F 65.1 °F 30.08 in WNW 8 mph 13 mph 68% 0.00 in 152 W/m2
14:30 75 °F 64.2 °F 30.08 in West 6 mph 13 mph 69% 0.00 in 121 W/m2
14:40 73.5 °F 62.3 °F 30.08 in West 8 mph 14 mph 68% 0.00 in 98 W/m2
14:50 71.9 °F 60.8 °F 30.09 in West 7 mph 14 mph 68% 0.00 in 93 W/m2
15:00 70.7 °F 61.2 °F 30.08 in West 5 mph 13 mph 72% 0.00 in 96 W/m2
15:10 70 °F 61.7 °F 30.08 in WSW 3 mph 10 mph 75% 0.00 in 112 W/m2
15:20 69.3 °F 62.1 °F 30.09 in West 5 mph 9 mph 78% 0.01 in 145 W/m2
15:30 68.5 °F 61.4 °F 30.08 in West 6 mph 12 mph 78% 0.00 in 172 W/m2
15:40 68.5 °F 61.8 °F 30.09 in West 1 mph 9 mph 79% 0.00 in 202 W/m2
15:50 68.7 °F 61.6 °F 30.09 in Calm   3 mph 78% 0.00 in 227 W/m2
16:00 68.9 °F 61.8 °F 30.09 in WSW 1 mph 3 mph 78% 0.00 in 242 W/m2
16:10 69.1 °F 62 °F 30.09 in SW 1 mph 2 mph 78% 0.00 in 282 W/m2
16:20 69.6 °F 62.5 °F 30.09 in SE 3 mph 8 mph 78% 0.00 in 261 W/m2
16:30 70 °F 63.2 °F 30.08 in SSE 2 mph 5 mph 79% 0.00 in 257 W/m2
16:40 70.3 °F 63.2 °F 30.09 in SSW 1 mph 5 mph 78% 0.00 in 240 W/m2
16:50 70.7 °F 62.4 °F 30.09 in SSE 2 mph 10 mph 75% 0.00 in 202 W/m2
17:00 70.5 °F 61.4 °F 30.09 in SSE 5 mph 12 mph 73% 0.00 in 167 W/m2
17:10 70.5 °F 61.4 °F 30.09 in SE 3 mph 12 mph 73% 0.00 in 297 W/m2
17:20 70.7 °F 61.6 °F 30.09 in SSE 3 mph 7 mph 73% 0.00 in 257 W/m2
17:30 71.1 °F 62.4 °F 30.08 in SSW 3 mph 6 mph 74% 0.00 in 296 W/m2
17:40 71.4 °F 63.1 °F 30.08 in South 1 mph 6 mph 75% 0.00 in 304 W/m2
17:50 72 °F 63.2 °F 30.08 in South 3 mph 7 mph 74% 0.00 in 171 W/m2
18:00 72.3 °F 62.8 °F 30.08 in SSW 3 mph 7 mph 72% 0.00 in 287 W/m2
18:10 72.3 °F 63.2 °F 30.07 in SSE 1 mph 8 mph 73% 0.00 in 219 W/m2
18:20 72.7 °F 63.5 °F 30.07 in SW 1 mph 4 mph 73% 0.00 in 194 W/m2
18:30 73 °F 63.5 °F 30.07 in SSW 2 mph 4 mph 72% 0.00 in 187 W/m2
18:40 72.9 °F 63.3 °F 30.07 in South 2 mph 5 mph 72% 0.00 in 97 W/m2
18:50 72.3 °F 63.2 °F 30.08 in ESE 1 mph 5 mph 73% 0.00 in 84 W/m2
19:00 72 °F 62.8 °F 30.08 in ESE 1 mph 3 mph 73% 0.00 in 60 W/m2
19:10 71.4 °F 62.3 °F 30.08 in SE 1 mph 5 mph 73% 0.00 in 47 W/m2
19:20 71.1 °F 62 °F 30.08 in SSE 1 mph 3 mph 73% 0.00 in 43 W/m2
19:30 70.7 °F 61.2 °F 30.08 in ESE 3 mph 6 mph 72% 0.00 in 30 W/m2
19:40 70 °F 60.9 °F 30.08 in SE 3 mph 6 mph 73% 0.00 in 20 W/m2
19:50 69.4 °F 60.8 °F 30.08 in ESE 3 mph 7 mph 74% 0.00 in 13 W/m2
20:00 68.7 °F 60.5 °F 30.08 in SE 3 mph 7 mph 75% 0.00 in 7 W/m2
20:10 68.2 °F 60.7 °F 30.09 in SE 3 mph 8 mph 77% 0.00 in 0 W/m2
20:20 67.8 °F 60.7 °F 30.09 in SSE 2 mph 6 mph 78% 0.00 in 0 W/m2
20:30 67.5 °F 60.7 °F 30.09 in SE 2 mph 5 mph 79% 0.00 in 0 W/m2
20:40 67.1 °F 60.4 °F 30.09 in SSE 2 mph 4 mph 79% 0.00 in 0 W/m2
20:50 66.9 °F 60.5 °F 30.09 in ESE 1 mph 6 mph 80% 0.00 in 0 W/m2
21:00 66.6 °F 60.2 °F 30.10 in ESE 2 mph 7 mph 80% 0.00 in 0 W/m2
21:10 66.4 °F 60 °F 30.10 in SSE 1 mph 5 mph 80% 0.00 in 0 W/m2
21:20 66.3 °F 60.3 °F 30.10 in Calm   3 mph 81% 0.00 in 0 W/m2
21:30 66 °F 60.7 °F 30.10 in ENE 3 mph 7 mph 83% 0.00 in 0 W/m2
21:40 65.7 °F 60.4 °F 30.11 in ESE 5 mph 8 mph 83% 0.00 in 0 W/m2
21:50 65.2 °F 60.3 °F 30.11 in ESE 3 mph 9 mph 84% 0.00 in 0 W/m2
22:00 64.9 °F 60 °F 30.11 in ESE 3 mph 9 mph 84% 0.00 in 0 W/m2
22:10 64.6 °F 60 °F 30.11 in ESE 2 mph 9 mph 85% 0.00 in 0 W/m2
22:20 64.2 °F 59.6 °F 30.11 in SE 3 mph 7 mph 85% 0.00 in 0 W/m2
22:30 64 °F 59.4 °F 30.11 in Calm   4 mph 85% 0.00 in 0 W/m2
22:40 63.8 °F 59.2 °F 30.11 in NE 2 mph 7 mph 85% 0.00 in 0 W/m2
22:50 63.3 °F 58.7 °F 30.11 in SE 3 mph 9 mph 85% 0.00 in 0 W/m2
23:00 62.8 °F 58.5 °F 30.12 in SE 3 mph 8 mph 86% 0.00 in 0 W/m2
23:10 62.6 °F 58.4 °F 30.11 in SE 5 mph 9 mph 86% 0.00 in 0 W/m2
23:20 62.4 °F 58.2 °F 30.11 in SE 3 mph 8 mph 86% 0.00 in 0 W/m2
23:30 62.2 °F 58 °F 30.11 in SE 2 mph 6 mph 86% 0.00 in 0 W/m2
23:40 62.1 °F 58.5 °F 30.11 in SSE 5 mph 8 mph 88% 0.00 in 0 W/m2
23:50 61.9 °F 58.3 °F 30.12 in SSE 1 mph 7 mph 88% 0.00 in 0 W/m2
Knjazevac, Serbia
Compliments of Weather Underground - 2 mb